createdAt,value
2019-05-19T00:00:02.247Z,80.73
2019-05-19T00:05:07.582Z,80.30
2019-05-19T00:10:09.934Z,80.19
2019-05-19T00:15:12.044Z,80.12
2019-05-19T00:20:14.327Z,80.52
2019-05-19T00:25:17.547Z,79.99
2019-05-19T00:30:20.577Z,80.46
2019-05-19T00:35:22.570Z,80.29
2019-05-19T00:40:24.492Z,80.43
2019-05-19T00:47:42.733Z,76.84
2019-05-19T00:52:44.905Z,80.67
2019-05-19T00:57:47.851Z,80.32
2019-05-19T01:02:49.885Z,80.41
2019-05-19T01:07:51.867Z,80.12
2019-05-19T01:12:53.871Z,80.37
2019-05-19T01:17:55.928Z,80.37
2019-05-19T01:22:57.973Z,80.60
2019-05-19T01:27:59.898Z,80.25
2019-05-19T01:33:03.348Z,80.35
2019-05-19T01:38:06.477Z,80.08
2019-05-19T01:43:08.404Z,80.69
2019-05-19T01:48:11.073Z,80.31
2019-05-19T01:53:13.206Z,80.42
2019-05-19T01:58:15.121Z,80.29
2019-05-19T02:03:17.183Z,80.08
2019-05-19T02:08:19.282Z,80.73
2019-05-19T02:13:21.388Z,80.22
2019-05-19T02:18:23.762Z,80.35
2019-05-19T02:23:25.876Z,80.55
2019-05-19T02:28:27.790Z,80.33
2019-05-19T02:33:29.797Z,80.44
2019-05-19T02:38:32.819Z,79.90
2019-05-19T02:43:36.333Z,80.22
2019-05-19T02:48:39.370Z,79.85
2019-05-19T02:53:43.054Z,79.70
2019-05-19T02:58:45.992Z,79.93
2019-05-19T03:03:48.010Z,80.46
2019-05-19T03:08:49.927Z,80.48
2019-05-19T03:13:51.970Z,80.25
2019-05-19T03:18:53.914Z,80.17
2019-05-19T03:23:55.843Z,80.45
2019-05-19T03:28:57.870Z,79.88
2019-05-19T03:33:59.842Z,80.23
2019-05-19T03:39:01.917Z,79.93
2019-05-19T03:44:05.250Z,80.06
2019-05-19T03:49:07.186Z,80.48
2019-05-19T03:54:09.233Z,80.56
2019-05-19T03:59:11.201Z,80.42
2019-05-19T04:04:13.137Z,80.25
2019-05-19T04:09:17.278Z,80.51
2019-05-19T04:14:18.966Z,80.62
2019-05-19T04:19:22.127Z,80.54
2019-05-19T04:24:24.078Z,80.42
2019-05-19T04:29:26.036Z,80.59
2019-05-19T04:34:28.000Z,80.59
2019-05-19T04:39:29.940Z,80.72
2019-05-19T04:44:32.156Z,80.48
2019-05-19T04:49:34.239Z,80.55
2019-05-19T04:54:36.290Z,80.98
2019-05-19T04:59:38.262Z,80.71
2019-05-19T05:04:42.276Z,81.21
2019-05-19T05:09:45.328Z,81.72
2019-05-19T05:14:47.242Z,81.11
2019-05-19T05:19:49.336Z,80.77
2019-05-19T05:24:51.466Z,80.72
2019-05-19T05:29:53.409Z,79.94
2019-05-19T05:34:55.363Z,79.90
2019-05-19T05:39:57.431Z,79.85
2019-05-19T05:44:59.534Z,79.43
2019-05-19T05:50:01.594Z,79.38
2019-05-19T05:55:03.815Z,79.79
2019-05-19T06:00:06.900Z,80.07
2019-05-19T06:05:09.327Z,80.44
2019-05-19T06:10:11.650Z,80.00
2019-05-19T06:15:13.691Z,80.42
2019-05-19T06:20:15.872Z,80.75
2019-05-19T06:25:18.134Z,80.84
2019-05-19T06:30:20.242Z,80.61
2019-05-19T06:35:22.459Z,80.90
2019-05-19T06:40:24.414Z,81.04
2019-05-19T06:45:26.386Z,80.86
2019-05-19T06:50:29.512Z,81.21
2019-05-19T06:55:31.637Z,80.83
2019-05-19T07:00:33.764Z,81.30
2019-05-19T07:05:35.828Z,81.16
2019-05-19T07:10:37.915Z,81.08
2019-05-19T07:15:41.228Z,80.57
2019-05-19T07:20:43.211Z,80.42
2019-05-19T07:25:45.265Z,80.43
2019-05-19T07:30:47.329Z,80.16
2019-05-19T07:35:49.665Z,80.36
2019-05-19T07:40:52.352Z,79.77
2019-05-19T07:45:54.351Z,79.76
2019-05-19T07:50:56.530Z,79.33
2019-05-19T07:55:58.592Z,79.72
2019-05-19T08:01:00.583Z,78.65
2019-05-19T08:06:03.115Z,78.95
2019-05-19T08:11:05.343Z,79.32
2019-05-19T08:16:07.697Z,79.32
2019-05-19T08:21:09.669Z,78.81
2019-05-19T08:26:11.765Z,78.78
2019-05-19T08:31:13.814Z,79.01
2019-05-19T08:36:15.751Z,78.52
2019-05-19T08:41:17.954Z,78.38
2019-05-19T08:46:19.921Z,79.02
2019-05-19T08:51:23.201Z,76.90
2019-05-19T08:56:25.270Z,77.29
2019-05-19T09:01:27.254Z,77.01
2019-05-19T09:06:29.322Z,77.56
2019-05-19T09:11:31.451Z,76.81
2019-05-19T09:16:33.431Z,75.97
2019-05-19T09:21:35.415Z,77.36
2019-05-19T09:26:37.496Z,76.68
2019-05-19T09:31:41.484Z,76.54
2019-05-19T09:36:43.656Z,76.88
2019-05-19T09:41:45.636Z,76.72
2019-05-19T09:46:47.782Z,75.59
2019-05-19T09:51:49.815Z,75.60
2019-05-19T09:56:51.865Z,74.35
2019-05-19T10:01:54.039Z,75.55
2019-05-19T10:06:56.188Z,75.50
2019-05-19T10:12:03.350Z,75.82
2019-05-19T10:17:05.602Z,74.52
2019-05-19T10:22:07.748Z,74.37
2019-05-19T10:27:09.791Z,74.36
2019-05-19T10:32:11.941Z,74.79
2019-05-19T10:37:13.975Z,74.54
2019-05-19T10:42:16.117Z,74.37
2019-05-19T10:47:18.000Z,74.04
2019-05-19T10:52:20.026Z,72.56
2019-05-19T10:57:22.075Z,73.65
2019-05-19T11:02:24.000Z,73.25
2019-05-19T11:07:25.980Z,73.29
2019-05-19T11:12:28.473Z,72.92
2019-05-19T11:17:30.671Z,72.16
2019-05-19T11:22:32.700Z,71.57
2019-05-19T11:27:34.736Z,72.52
2019-05-19T11:32:36.907Z,72.81
2019-05-19T11:37:38.823Z,72.85
2019-05-19T11:42:40.890Z,71.98
2019-05-19T11:47:42.824Z,72.57
2019-05-19T11:52:44.860Z,72.02
2019-05-19T11:57:47.099Z,72.18
2019-05-19T12:02:49.065Z,72.79
2019-05-19T12:07:51.177Z,72.93
2019-05-19T12:12:53.227Z,72.30
2019-05-19T12:17:55.277Z,71.98
2019-05-19T12:22:57.454Z,70.98
2019-05-19T12:27:59.533Z,71.42
2019-05-19T12:33:01.661Z,71.43
2019-05-19T12:38:03.686Z,71.03
2019-05-19T12:43:05.742Z,70.66
2019-05-19T12:48:07.833Z,70.82
2019-05-19T12:53:10.893Z,70.95
2019-05-19T12:58:12.974Z,69.95
2019-05-19T13:03:14.939Z,69.06
2019-05-19T13:08:18.155Z,68.98
2019-05-19T13:13:20.233Z,69.76
2019-05-19T13:18:22.280Z,70.08
2019-05-19T13:23:24.352Z,69.49
2019-05-19T13:28:26.300Z,68.70
2019-05-19T13:33:28.250Z,67.47
2019-05-19T13:38:30.223Z,69.29
2019-05-19T13:43:32.234Z,69.09
2019-05-19T13:48:34.179Z,68.75
2019-05-19T13:53:36.263Z,68.72
2019-05-19T13:58:38.370Z,68.78
2019-05-19T14:03:40.410Z,68.54
2019-05-19T14:08:42.367Z,67.55
2019-05-19T14:13:44.347Z,67.99
2019-05-19T14:18:46.379Z,69.29
2019-05-19T14:23:48.454Z,67.90
2019-05-19T14:28:50.516Z,68.26
2019-05-19T14:33:52.461Z,67.95
2019-05-19T14:39:05.039Z,68.60
2019-05-19T14:44:06.160Z,67.38
2019-05-19T14:49:08.138Z,69.88
2019-05-19T14:54:10.173Z,69.93
2019-05-19T14:59:12.219Z,69.12
2019-05-19T15:04:15.272Z,68.19
2019-05-19T15:09:17.323Z,69.32
2019-05-19T15:14:19.372Z,69.58
2019-05-19T15:19:21.319Z,69.62
2019-05-19T15:24:23.282Z,69.93
2019-05-19T15:29:25.364Z,70.77
2019-05-19T15:34:27.420Z,71.60
2019-05-19T15:39:29.482Z,71.37
2019-05-19T15:44:32.037Z,72.32
2019-05-19T15:49:34.007Z,72.40
2019-05-19T15:54:36.139Z,71.61
2019-05-19T15:59:38.460Z,72.35
2019-05-19T16:04:40.594Z,71.91
2019-05-19T16:09:42.627Z,71.35
2019-05-19T16:14:44.701Z,70.72
2019-05-19T16:19:46.729Z,70.56
2019-05-19T16:24:48.746Z,71.79
2019-05-19T16:29:50.804Z,71.26
2019-05-19T16:34:52.780Z,70.86
2019-05-19T16:39:54.738Z,70.68
2019-05-19T16:44:57.252Z,71.11
2019-05-19T16:49:59.828Z,71.33
2019-05-19T16:55:21.876Z,71.38
2019-05-19T17:00:24.889Z,70.84
2019-05-19T17:05:27.020Z,70.93
2019-05-19T17:10:28.980Z,71.86
2019-05-19T17:15:31.417Z,71.97
2019-05-19T17:20:33.570Z,72.29
2019-05-19T17:25:35.513Z,72.51
2019-05-19T17:30:37.536Z,72.38
2019-05-19T17:35:39.513Z,72.60
2019-05-19T17:40:41.733Z,72.59
2019-05-19T17:45:43.823Z,71.70
2019-05-19T17:50:45.987Z,72.40
2019-05-19T17:55:48.525Z,72.82
2019-05-19T18:00:50.589Z,73.03
2019-05-19T18:05:52.602Z,72.51
2019-05-19T18:10:54.590Z,72.63
2019-05-19T18:15:56.655Z,73.17
2019-05-19T18:20:58.608Z,73.23
2019-05-19T18:26:01.534Z,73.28
2019-05-19T18:31:04.644Z,73.27
2019-05-19T18:36:06.666Z,73.17
2019-05-19T18:41:08.611Z,73.16
2019-05-19T18:46:10.804Z,73.29
2019-05-19T18:51:12.728Z,73.42
2019-05-19T18:56:14.816Z,73.67
2019-05-19T19:01:16.937Z,73.23
2019-05-19T19:06:19.526Z,73.87
2019-05-19T19:11:21.490Z,73.58
2019-05-19T19:16:25.331Z,73.29
2019-05-19T19:21:28.648Z,73.32
2019-05-19T19:26:30.706Z,73.46
2019-05-19T19:31:47.360Z,72.63
2019-05-19T19:36:36.768Z,73.15
2019-05-19T19:41:38.819Z,73.31
2019-05-19T19:46:40.837Z,74.17
2019-05-19T19:51:42.836Z,74.42
2019-05-19T19:56:44.805Z,74.51
2019-05-19T20:01:46.925Z,74.39
2019-05-19T20:06:49.059Z,74.32
2019-05-19T20:11:52.358Z,74.54
2019-05-19T20:16:54.453Z,74.51
2019-05-19T20:21:57.289Z,74.30
2019-05-19T20:26:59.491Z,73.79
2019-05-19T20:32:03.064Z,72.58
2019-05-19T20:37:05.108Z,72.61
2019-05-19T20:42:07.201Z,73.11
2019-05-19T20:47:09.354Z,72.93
2019-05-19T20:52:12.551Z,73.51
2019-05-19T20:57:14.791Z,74.40
2019-05-19T21:02:16.855Z,74.76
2019-05-19T21:07:19.010Z,75.42
2019-05-19T21:12:21.007Z,75.36
2019-05-19T21:17:23.093Z,75.46
2019-05-19T21:22:26.200Z,76.34
2019-05-19T21:27:28.348Z,76.30
2019-05-19T21:32:31.630Z,76.47
2019-05-19T21:37:33.733Z,76.59
2019-05-19T21:42:36.023Z,76.69
2019-05-19T21:47:38.075Z,76.33
2019-05-19T21:52:40.079Z,75.86
2019-05-19T21:57:42.223Z,76.19
2019-05-19T22:02:44.422Z,76.07
2019-05-19T22:07:58.418Z,76.96
2019-05-19T22:13:01.723Z,77.19
2019-05-19T22:18:03.934Z,77.94
2019-05-19T22:23:05.997Z,77.82
2019-05-19T22:28:08.258Z,78.05
2019-05-19T22:33:10.236Z,78.47
2019-05-19T22:38:12.313Z,78.46
2019-05-19T22:43:14.423Z,78.78
2019-05-19T22:48:17.201Z,79.03
2019-05-19T22:53:19.320Z,78.70
2019-05-19T22:58:21.645Z,79.10
2019-05-19T23:03:24.779Z,78.99
2019-05-19T23:08:27.149Z,78.70
2019-05-19T23:13:30.044Z,78.79
2019-05-19T23:18:32.385Z,79.02
2019-05-19T23:23:34.568Z,78.81
2019-05-19T23:28:36.600Z,79.36
2019-05-19T23:33:38.605Z,79.91
2019-05-19T23:38:40.583Z,79.46
2019-05-19T23:43:42.699Z,79.04
2019-05-19T23:48:46.000Z,79.16
2019-05-19T23:53:48.191Z,79.42
2019-05-19T23:58:50.532Z,79.46
